Time;durP1;ratioP1;P1;durP2;ratioP2;P2;SDS_P1;SDS_P2;PMS_P1;PMS_P2;Temp;Humidity;BMP_temperature;BMP_pressure;BME280_temperature;BME280_humidity;BME280_pressure;Samples;Min_cycle;Max_cycle;Signal;HPM_P1;HPM_P2
2022/02/02 00:00:20;;;;;;;16.27;2.88;;;;;;;;;;5017691;28;20049;-38
2022/02/02 00:02:54;;;;;;;23.70;3.35;;;;;;;;;;5013854;28;20132;-38
2022/02/02 00:05:35;;;;;;;14.48;2.78;;;;;;;;;;5013620;28;20109;-37
2022/02/02 00:08:13;;;;;;;23.83;3.05;;;;;;;;;;5012980;28;20041;-37
2022/02/02 00:16:13;;;;;;;18.73;2.88;;;;;;;;;;5013477;28;20120;-36
2022/02/02 00:22:01;;;;;;;14.85;2.50;;;;;;;;;;5019063;28;20037;-36
2022/02/02 00:24:03;;;;;;;17.42;2.83;;;;;;;;;;4999567;28;20488;-37
2022/02/02 00:26:35;;;;;;;11.90;2.40;;;;;;;;;;5020406;28;20041;-36
2022/02/02 00:29:17;;;;;;;12.73;2.83;;;;;;;;;;5015205;28;20058;-36
2022/02/02 00:31:51;;;;;;;15.48;2.67;;;;;;;;;;5020609;28;20610;-36
2022/02/02 00:34:23;;;;;;;21.23;3.15;;;;;;;;;;5018198;28;20037;-36
2022/02/02 00:36:56;;;;;;;19.33;3.05;;;;;;;;;;5010592;28;20034;-36
2022/02/02 00:39:27;;;;;;;14.68;3.08;;;;;;;;;;5012056;28;20064;-36
2022/02/02 00:41:56;;;;;;;14.23;2.20;;;;;;;;;;5011150;28;20033;-39
2022/02/02 00:44:24;;;;;;;22.98;2.80;;;;;;;;;;5013197;28;20033;-37
2022/02/02 00:46:51;;;;;;;16.95;2.55;;;;;;;;;;5011885;28;20029;-39
2022/02/02 00:49:18;;;;;;;16.40;3.05;;;;;;;;;;5011933;28;20593;-39
2022/02/02 00:51:50;;;;;;;16.40;3.17;;;;;;;;;;5011071;28;20126;-38
2022/02/02 00:54:18;;;;;;;19.38;3.20;;;;;;;;;;5013184;28;20025;-38
2022/02/02 00:56:45;;;;;;;25.48;3.30;;;;;;;;;;5025203;28;20109;-39
2022/02/02 00:59:13;;;;;;;27.13;4.15;;;;;;;;;;5025258;28;20032;-38
2022/02/02 01:01:40;;;;;;;32.75;4.38;;;;;;;;;;5023413;28;20178;-38
2022/02/02 01:04:07;;;;;;;28.13;4.75;;;;;;;;;;5024103;28;20093;-38
2022/02/02 01:06:39;;;;;;;28.23;4.75;;;;;;;;;;5020396;28;20113;-39
2022/02/02 01:09:22;;;;;;;38.47;4.88;;;;;;;;;;5020422;28;20025;-36
2022/02/02 01:12:41;;;;;;;36.58;4.80;;;;;;;;;;5020728;28;20033;-37
2022/02/02 01:17:47;;;;;;;35.72;5.30;;;;;;;;;;5020205;28;20088;-37
2022/02/02 01:20:33;;;;;;;43.67;5.22;;;;;;;;;;5021632;28;20033;-37
2022/02/02 01:28:31;;;;;;;36.83;5.07;;;;;;;;;;5015985;28;20129;-33
2022/02/02 01:31:00;;;;;;;28.23;5.15;;;;;;;;;;5024470;28;20044;-33
2022/02/02 01:33:27;;;;;;;34.95;5.20;;;;;;;;;;5031313;28;20026;-33
2022/02/02 01:35:54;;;;;;;27.02;4.57;;;;;;;;;;5022765;28;20068;-34
2022/02/02 01:38:24;;;;;;;27.92;4.65;;;;;;;;;;5011978;28;20579;-34
2022/02/02 01:40:56;;;;;;;23.60;3.92;;;;;;;;;;5011606;28;20029;-34
2022/02/02 01:43:37;;;;;;;25.80;4.93;;;;;;;;;;5011874;28;20046;-33
2022/02/02 01:46:10;;;;;;;25.70;4.63;;;;;;;;;;5011563;28;20034;-35
2022/02/02 01:48:44;;;;;;;38.72;9.32;;;;;;;;;;4996641;28;20028;-33
2022/02/02 01:53:56;;;;;;;59.80;14.52;;;;;;;;;;5012076;28;20030;-33
2022/02/02 01:56:24;;;;;;;57.78;13.80;;;;;;;;;;5011715;28;20040;-33
2022/02/02 02:01:41;;;;;;;44.60;11.40;;;;;;;;;;5001341;28;20472;-33
2022/02/02 02:04:08;;;;;;;46.85;11.90;;;;;;;;;;5011102;28;20105;-33
2022/02/02 02:06:35;;;;;;;44.60;10.70;;;;;;;;;;5022868;28;20041;-33
2022/02/02 02:09:02;;;;;;;42.03;9.60;;;;;;;;;;5027541;28;20029;-33
2022/02/02 02:11:29;;;;;;;25.95;6.57;;;;;;;;;;5030243;28;20483;-33
2022/02/02 02:16:25;;;;;;;23.00;5.07;;;;;;;;;;5030737;28;20025;-34
2022/02/02 02:18:53;;;;;;;21.33;4.90;;;;;;;;;;5024349;28;20030;-33
2022/02/02 02:21:20;;;;;;;17.83;5.30;;;;;;;;;;5020234;28;20034;-33
2022/02/02 02:23:49;;;;;;;15.65;3.95;;;;;;;;;;5021013;28;20050;-34
2022/02/02 02:26:27;;;;;;;15.05;3.60;;;;;;;;;;5027842;28;20027;-34
2022/02/02 02:34:53;;;;;;;11.65;1.98;;;;;;;;;;5030113;28;20094;-32
2022/02/02 02:37:40;;;;;;;16.17;2.55;;;;;;;;;;5030565;28;20092;-32
2022/02/02 02:40:24;;;;;;;24.17;2.38;;;;;;;;;;5030596;28;20037;-32
2022/02/02 02:56:43;;;;;;;9.75;2.83;;;;;;;;;;5031045;28;20040;-32
2022/02/02 02:59:15;;;;;;;10.32;2.30;;;;;;;;;;5025514;28;20046;-34
2022/02/02 03:59:40;;;;;;;11.23;1.98;;;;;;;;;;5014423;28;20085;-31
2022/02/02 04:04:51;;;;;;;9.50;2.15;;;;;;;;;;5014122;28;20531;-31
2022/02/02 04:07:22;;;;;;;7.93;2.75;;;;;;;;;;5014275;28;20065;-31
2022/02/02 04:09:50;;;;;;;12.00;2.28;;;;;;;;;;5014114;28;20117;-31
2022/02/02 04:17:52;;;;;;;6.20;2.38;;;;;;;;;;5013836;28;20046;-31
2022/02/02 04:54:07;;;;;;;8.32;2.25;;;;;;;;;;5012883;28;20113;-31
2022/02/02 05:02:50;;;;;;;16.60;2.72;;;;;;;;;;5004351;28;20038;-31
2022/02/02 05:10:33;;;;;;;8.30;2.35;;;;;;;;;;5013320;28;20028;-31
2022/02/02 05:21:18;;;;;;;12.07;2.17;;;;;;;;;;5013271;28;20072;-31
2022/02/02 05:45:36;;;;;;;11.85;2.15;;;;;;;;;;5012449;28;20052;-31
2022/02/02 05:53:44;;;;;;;9.50;2.25;;;;;;;;;;4991875;28;20364;-31
2022/02/02 05:56:11;;;;;;;18.95;2.60;;;;;;;;;;5012213;28;20026;-31
2022/02/02 05:58:38;;;;;;;7.20;2.00;;;;;;;;;;5011925;28;20042;-31
2022/02/02 06:01:06;;;;;;;10.35;2.20;;;;;;;;;;5012126;28;20415;-31
2022/02/02 06:03:42;;;;;;;6.93;2.30;;;;;;;;;;5012089;28;20033;-31
2022/02/02 06:06:10;;;;;;;14.30;2.40;;;;;;;;;;5011342;28;20037;-31
2022/02/02 06:08:42;;;;;;;13.45;2.30;;;;;;;;;;5011764;28;20030;-31
2022/02/02 06:11:11;;;;;;;13.17;2.20;;;;;;;;;;5011736;28;20053;-31
2022/02/02 06:13:42;;;;;;;7.07;1.67;;;;;;;;;;5011752;28;20307;-31
2022/02/02 06:16:09;;;;;;;10.63;1.98;;;;;;;;;;5011895;28;20435;-31
2022/02/02 06:18:37;;;;;;;6.53;1.90;;;;;;;;;;5011669;28;20073;-31
2022/02/02 06:21:08;;;;;;;8.50;1.90;;;;;;;;;;5011662;28;20037;-31
2022/02/02 06:23:42;;;;;;;8.23;1.92;;;;;;;;;;5011271;28;20081;-31
2022/02/02 06:26:17;;;;;;;7.35;1.98;;;;;;;;;;5011286;28;20117;-31
2022/02/02 06:28:45;;;;;;;13.75;2.15;;;;;;;;;;5011745;28;20602;-31
2022/02/02 06:31:16;;;;;;;6.57;1.77;;;;;;;;;;5160398;23;20172;-38
2022/02/02 06:33:43;;;;;;;6.75;1.77;;;;;;;;;;5031499;28;20033;-38
2022/02/02 06:36:11;;;;;;;14.30;2.10;;;;;;;;;;5030940;28;20029;-38
2022/02/02 06:38:39;;;;;;;11.27;2.22;;;;;;;;;;5031434;28;20146;-38
2022/02/02 06:41:07;;;;;;;11.20;2.25;;;;;;;;;;5030840;28;20025;-38
2022/02/02 06:43:34;;;;;;;11.15;1.98;;;;;;;;;;5031326;28;20483;-38
2022/02/02 06:46:02;;;;;;;6.10;1.73;;;;;;;;;;5031389;28;20033;-39
2022/02/02 06:48:32;;;;;;;9.98;2.00;;;;;;;;;;5030765;28;20120;-38
2022/02/02 06:53:54;;;;;;;16.58;2.00;;;;;;;;;;5030384;28;20061;-37
2022/02/02 07:07:38;;;;;;;77.22;6.32;;;;;;;;;;5034771;28;20026;-38
2022/02/02 07:10:19;;;;;;;103.68;6.82;;;;;;;;;;5035269;28;20056;-39
2022/02/02 07:28:32;;;;;;;9.13;1.30;;;;;;;;;;5035362;28;20117;-38
2022/02/02 07:31:30;;;;;;;17.85;1.17;;;;;;;;;;5033579;28;20072;-39
2022/02/02 07:34:14;;;;;;;14.70;1.15;;;;;;;;;;5034560;28;20037;-38
2022/02/02 07:36:44;;;;;;;13.90;1.70;;;;;;;;;;5035005;28;20061;-38
2022/02/02 07:39:13;;;;;;;5.47;1.00;;;;;;;;;;5034809;28;20042;-38
2022/02/02 07:41:46;;;;;;;4.95;1.02;;;;;;;;;;5034041;28;20522;-38
2022/02/02 07:44:18;;;;;;;13.55;1.40;;;;;;;;;;5034674;28;20056;-38
2022/02/02 07:46:47;;;;;;;12.98;1.15;;;;;;;;;;5033819;28;20096;-38
2022/02/02 07:49:16;;;;;;;8.13;1.30;;;;;;;;;;5034418;28;20288;-38
2022/02/02 07:51:47;;;;;;;12.13;1.38;;;;;;;;;;5033935;28;20029;-38
2022/02/02 07:54:20;;;;;;;7.80;1.10;;;;;;;;;;5034099;28;20117;-38
2022/02/02 07:56:47;;;;;;;9.65;0.95;;;;;;;;;;5034609;28;20095;-38
2022/02/02 07:59:35;;;;;;;8.75;0.80;;;;;;;;;;5033881;28;20402;-38
2022/02/02 08:02:04;;;;;;;4.22;1.00;;;;;;;;;;5034083;28;20037;-38
2022/02/02 08:04:32;;;;;;;4.18;0.73;;;;;;;;;;5033686;28;20030;-37
2022/02/02 08:06:59;;;;;;;4.85;0.82;;;;;;;;;;5034178;28;20048;-38
2022/02/02 08:09:38;;;;;;;10.13;1.50;;;;;;;;;;5033936;28;20117;-38
2022/02/02 08:12:13;;;;;;;5.85;1.13;;;;;;;;;;5033671;28;20060;-38
2022/02/02 08:14:42;;;;;;;3.05;0.80;;;;;;;;;;5034397;28;20036;-37
2022/02/02 08:17:09;;;;;;;9.68;0.82;;;;;;;;;;5033068;28;20037;-38
2022/02/02 08:19:38;;;;;;;5.20;0.80;;;;;;;;;;5033807;28;20398;-38
2022/02/02 08:22:05;;;;;;;3.58;1.00;;;;;;;;;;5033552;28;20037;-39
2022/02/02 08:24:32;;;;;;;4.82;0.82;;;;;;;;;;5033453;28;20540;-38
2022/02/02 08:26:59;;;;;;;2.70;0.85;;;;;;;;;;5033782;28;20033;-38
2022/02/02 08:29:26;;;;;;;2.35;0.70;;;;;;;;;;5033430;28;20029;-39
2022/02/02 08:31:54;;;;;;;3.38;0.70;;;;;;;;;;5033438;28;20053;-38
2022/02/02 08:34:21;;;;;;;14.75;1.15;;;;;;;;;;5033525;28;20043;-39
2022/02/02 08:36:53;;;;;;;5.03;1.13;;;;;;;;;;5033403;28;20052;-38
2022/02/02 08:39:50;;;;;;;3.83;1.00;;;;;;;;;;5033398;28;20398;-38
2022/02/02 08:42:16;;;;;;;2.67;0.70;;;;;;;;;;5032703;28;20467;-39
2022/02/02 08:45:13;;;;;;;7.07;1.13;;;;;;;;;;5033530;28;20557;-39
2022/02/02 08:47:32;;;;;;;9.80;1.10;;;;;;;;;;5031745;28;20487;-37
2022/02/02 08:50:01;;;;;;;5.68;1.08;;;;;;;;;;5033316;28;20116;-39
2022/02/02 08:52:47;;;;;;;2.58;0.70;;;;;;;;;;5033066;28;20035;-38
2022/02/02 08:55:16;;;;;;;3.25;0.75;;;;;;;;;;5032730;28;20446;-38
2022/02/02 08:57:49;;;;;;;20.88;1.58;;;;;;;;;;5032945;28;20049;-38
2022/02/02 09:00:22;;;;;;;22.98;1.85;;;;;;;;;;5033056;28;20026;-38
2022/02/02 09:05:19;;;;;;;22.33;2.00;;;;;;;;;;5033258;28;20068;-38
2022/02/02 09:05:41;;;;;;;90.03;3.83;;;;;;;;;;5032757;28;20037;-38
2022/02/02 09:08:08;;;;;;;149.70;6.55;;;;;;;;;;5033084;28;20029;-40
2022/02/02 09:24:34;;;;;;;171.50;8.40;;;;;;;;;;5033026;28;20489;-39
2022/02/02 09:35:11;;;;;;;157.95;9.80;;;;;;;;;;5031908;28;20128;-39
2022/02/02 09:37:39;;;;;;;110.53;7.22;;;;;;;;;;5032390;28;20510;-39
2022/02/02 09:42:54;;;;;;;160.15;9.35;;;;;;;;;;5032681;28;20068;-39
2022/02/02 09:45:23;;;;;;;80.60;4.82;;;;;;;;;;5032347;28;20040;-39
2022/02/02 09:48:08;;;;;;;62.67;4.28;;;;;;;;;;5031335;28;20041;-40
2022/02/02 09:50:42;;;;;;;28.02;2.72;;;;;;;;;;5032548;28;20127;-40
2022/02/02 09:53:18;;;;;;;43.92;2.85;;;;;;;;;;5031579;28;20495;-39
2022/02/02 10:06:03;;;;;;;13.52;1.20;;;;;;;;;;5032065;28;20480;-44
2022/02/02 10:11:46;;;;;;;19.23;1.70;;;;;;;;;;5031926;28;20494;-42
2022/02/02 10:14:30;;;;;;;7.70;0.80;;;;;;;;;;5030950;28;20585;-42
2022/02/02 10:16:58;;;;;;;4.00;0.60;;;;;;;;;;5031963;28;20051;-42
2022/02/02 10:19:25;;;;;;;3.63;0.68;;;;;;;;;;5031340;28;20037;-43
2022/02/02 10:21:53;;;;;;;10.00;0.90;;;;;;;;;;5031699;28;20117;-44
2022/02/02 10:24:40;;;;;;;3.08;0.57;;;;;;;;;;5031394;28;20438;-45
2022/02/02 10:27:21;;;;;;;3.35;0.68;;;;;;;;;;5031246;28;20041;-43
2022/02/02 10:29:48;;;;;;;4.13;0.52;;;;;;;;;;5031590;28;20076;-43
2022/02/02 10:32:34;;;;;;;2.95;0.60;;;;;;;;;;5031094;28;20057;-43
2022/02/02 10:35:01;;;;;;;3.03;0.50;;;;;;;;;;5031573;28;20091;-42
2022/02/02 10:37:31;;;;;;;2.80;0.50;;;;;;;;;;5031287;28;20037;-43
2022/02/02 10:39:58;;;;;;;2.50;0.40;;;;;;;;;;5030970;28;20034;-42
2022/02/02 10:42:43;;;;;;;2.25;0.55;;;;;;;;;;5030854;28;20095;-45
2022/02/02 10:45:29;;;;;;;1.77;0.40;;;;;;;;;;5031461;28;20487;-45
2022/02/02 10:48:13;;;;;;;2.35;0.50;;;;;;;;;;5031044;28;20424;-44
2022/02/02 10:50:50;;;;;;;2.97;0.60;;;;;;;;;;5031370;28;20029;-42
2022/02/02 10:53:32;;;;;;;0.93;0.40;;;;;;;;;;5030919;28;20100;-42
2022/02/02 10:56:30;;;;;;;2.17;0.57;;;;;;;;;;5031206;28;20033;-44
2022/02/02 11:06:47;;;;;;;5.25;0.70;;;;;;;;;;5032008;28;20079;-44
2022/02/02 11:09:15;;;;;;;4.90;0.60;;;;;;;;;;5032810;28;20065;-43
2022/02/02 11:11:44;;;;;;;5.47;0.80;;;;;;;;;;5031395;28;20044;-44
2022/02/02 11:14:31;;;;;;;8.98;1.10;;;;;;;;;;5030866;28;20034;-43
2022/02/02 11:17:07;;;;;;;2.58;0.60;;;;;;;;;;4991255;28;20045;-42
2022/02/02 11:19:36;;;;;;;5.50;0.80;;;;;;;;;;5030889;28;20033;-42
2022/02/02 11:22:21;;;;;;;4.25;0.90;;;;;;;;;;5030787;28;20052;-42
2022/02/02 11:24:48;;;;;;;1.90;0.50;;;;;;;;;;5031121;28;20037;-42
2022/02/02 11:27:34;;;;;;;4.65;0.70;;;;;;;;;;5030556;28;20026;-43
2022/02/02 11:30:02;;;;;;;4.20;0.80;;;;;;;;;;5031145;28;20423;-42
2022/02/02 11:32:43;;;;;;;3.05;0.90;;;;;;;;;;5030160;28;20053;-45
2022/02/02 11:35:30;;;;;;;4.20;0.80;;;;;;;;;;5030849;28;20072;-44
2022/02/02 11:38:04;;;;;;;3.63;1.13;;;;;;;;;;5012986;28;20046;-44
2022/02/02 11:40:35;;;;;;;7.65;1.35;;;;;;;;;;5030749;28;20384;-46
2022/02/02 11:43:11;;;;;;;6.97;1.20;;;;;;;;;;5030434;28;20464;-44
2022/02/02 11:45:45;;;;;;;6.38;1.20;;;;;;;;;;5030865;28;20112;-44
2022/02/02 11:48:20;;;;;;;8.38;1.48;;;;;;;;;;5030981;28;20491;-43
2022/02/02 11:50:48;;;;;;;8.23;1.08;;;;;;;;;;5013319;28;20026;-42
2022/02/02 11:53:35;;;;;;;23.13;1.85;;;;;;;;;;5034362;28;20120;-44
2022/02/02 11:56:07;;;;;;;18.50;2.15;;;;;;;;;;5020822;28;20107;-43
2022/02/02 11:58:35;;;;;;;19.63;1.45;;;;;;;;;;5034298;28;20108;-45
2022/02/02 12:04:17;;;;;;;10.75;1.23;;;;;;;;;;5034702;28;20387;-44
2022/02/02 12:09:28;;;;;;;11.82;1.58;;;;;;;;;;5034394;28;20029;-45
2022/02/02 12:57:43;;;;;;;7.60;0.70;;;;;;;;;;5012428;28;20034;-46
2022/02/02 13:00:14;;;;;;;6.20;0.70;;;;;;;;;;5024138;28;20068;-46
2022/02/02 13:02:41;;;;;;;6.57;0.70;;;;;;;;;;5030630;28;20037;-44
2022/02/02 13:05:09;;;;;;;7.25;1.30;;;;;;;;;;5029468;28;20398;-45
2022/02/02 13:07:37;;;;;;;6.35;0.90;;;;;;;;;;5028604;28;20021;-44
2022/02/02 13:10:06;;;;;;;7.20;0.90;;;;;;;;;;5032015;28;20550;-47
2022/02/02 13:12:38;;;;;;;11.13;1.08;;;;;;;;;;5031985;28;20029;-46
2022/02/02 13:15:38;;;;;;;5.70;0.90;;;;;;;;;;5030601;28;20415;-46
2022/02/02 13:21:17;;;;;;;15.75;1.70;;;;;;;;;;5008646;28;20463;-46
2022/02/02 13:23:55;;;;;;;16.30;1.45;;;;;;;;;;5023992;28;20101;-44
2022/02/02 13:27:16;;;;;;;4.55;1.00;;;;;;;;;;5030270;28;20045;-44
2022/02/02 13:32:45;;;;;;;13.45;0.95;;;;;;;;;;5031514;28;20554;-44
2022/02/02 13:43:00;;;;;;;8.48;1.00;;;;;;;;;;5028142;28;20041;-46
2022/02/02 14:06:51;;;;;;;13.50;1.35;;;;;;;;;;4960839;28;20097;-42
2022/02/02 14:09:50;;;;;;;14.02;1.10;;;;;;;;;;5019290;28;20041;-41
2022/02/02 14:31:29;;;;;;;15.98;2.28;;;;;;;;;;5021089;28;20060;-44
2022/02/02 14:33:59;;;;;;;21.77;2.47;;;;;;;;;;5025631;28;20556;-45
2022/02/02 14:36:31;;;;;;;31.27;2.70;;;;;;;;;;5030379;28;20076;-45
2022/02/02 14:44:13;;;;;;;98.70;4.50;;;;;;;;;;5028554;28;20120;-41
2022/02/02 14:49:26;;;;;;;912.80;55.42;;;;;;;;;;5030326;28;20033;-40
2022/02/02 14:54:39;;;;;;;189.18;13.15;;;;;;;;;;5025635;28;19908;-39
2022/02/02 15:05:24;;;;;;;128.45;9.90;;;;;;;;;;5030574;28;20045;-41
2022/02/02 15:29:32;;;;;;;26.35;2.65;;;;;;;;;;5034030;28;20506;-45
2022/02/02 15:31:59;;;;;;;17.60;2.35;;;;;;;;;;5034284;28;20081;-44
2022/02/02 15:34:51;;;;;;;18.25;2.20;;;;;;;;;;5029078;28;20018;-47
2022/02/02 15:37:34;;;;;;;17.13;2.15;;;;;;;;;;5029049;28;20038;-45
2022/02/02 15:42:56;;;;;;;22.48;2.45;;;;;;;;;;5013703;28;20087;-45
2022/02/02 15:58:59;;;;;;;17.73;2.33;;;;;;;;;;5033479;28;20399;-45
2022/02/02 16:04:15;;;;;;;21.17;2.70;;;;;;;;;;5034069;28;20557;-46
2022/02/02 16:06:42;;;;;;;21.50;2.60;;;;;;;;;;5032302;28;20079;-45
2022/02/02 16:11:39;;;;;;;15.25;2.60;;;;;;;;;;5033222;28;20484;-45
2022/02/02 16:14:13;;;;;;;18.90;2.53;;;;;;;;;;5032604;28;20176;-46
2022/02/02 16:24:38;;;;;;;21.23;2.85;;;;;;;;;;5017492;28;20057;-42
2022/02/02 16:25:15;;;;;;;13.57;2.92;;;;;;;;;;5014745;28;20092;-45
2022/02/02 16:38:45;;;;;;;15.55;2.35;;;;;;;;;;4994385;28;20048;-44
2022/02/02 16:43:07;;;;;;;9.27;2.15;;;;;;;;;;5013930;28;20049;-44
2022/02/02 16:43:59;;;;;;;11.60;2.55;;;;;;;;;;5013281;28;20507;-44
2022/02/02 16:46:26;;;;;;;18.17;2.50;;;;;;;;;;5013927;28;20057;-44
2022/02/02 16:48:53;;;;;;;9.85;2.10;;;;;;;;;;5012912;28;20124;-44
2022/02/02 16:51:20;;;;;;;13.00;2.15;;;;;;;;;;5013756;28;20030;-43
2022/02/02 16:53:50;;;;;;;13.23;2.03;;;;;;;;;;5013617;28;20018;-44
2022/02/02 16:56:31;;;;;;;13.43;2.40;;;;;;;;;;5012774;28;20113;-44
2022/02/02 17:29:54;;;;;;;13.45;2.40;;;;;;;;;;5013402;28;20049;-44
2022/02/02 17:34:43;;;;;;;8.82;2.05;;;;;;;;;;5012852;28;20081;-44
2022/02/02 17:45:21;;;;;;;8.15;1.73;;;;;;;;;;5013245;28;20046;-44
2022/02/02 18:02:13;;;;;;;11.38;2.15;;;;;;;;;;5012115;28;20044;-44
2022/02/02 18:20:25;;;;;;;7.50;2.15;;;;;;;;;;5011917;28;20045;-44
2022/02/02 18:23:04;;;;;;;5.78;1.60;;;;;;;;;;5012183;28;20308;-43
2022/02/02 18:25:42;;;;;;;8.30;2.33;;;;;;;;;;5012416;28;20080;-44
2022/02/02 18:33:44;;;;;;;5.63;1.75;;;;;;;;;;5011719;28;20462;-43
2022/02/02 18:42:38;;;;;;;8.68;1.90;;;;;;;;;;5012061;28;20061;-44
2022/02/02 18:55:11;;;;;;;11.02;1.90;;;;;;;;;;5011924;28;20055;-43
2022/02/02 19:56:58;;;;;;;9.48;2.10;;;;;;;;;;5015208;28;20034;-45
2022/02/02 20:02:28;;;;;;;9.27;2.30;;;;;;;;;;5000020;28;20537;-44
2022/02/02 20:05:19;;;;;;;11.52;2.17;;;;;;;;;;5014479;28;20403;-44
2022/02/02 20:10:40;;;;;;;9.95;2.58;;;;;;;;;;5014783;28;20038;-44
2022/02/02 20:13:00;;;;;;;6.43;1.67;;;;;;;;;;5013382;28;20042;-45
2022/02/02 20:15:27;;;;;;;8.43;2.10;;;;;;;;;;5014408;28;20507;-43
2022/02/02 20:17:56;;;;;;;7.20;1.88;;;;;;;;;;5014207;28;20041;-43
2022/02/02 20:20:24;;;;;;;12.63;2.75;;;;;;;;;;5014021;28;20072;-43
2022/02/02 20:22:51;;;;;;;9.18;2.40;;;;;;;;;;5014477;28;20065;-44
2022/02/02 20:25:19;;;;;;;10.05;2.28;;;;;;;;;;5014027;28;20439;-44
2022/02/02 20:27:53;;;;;;;8.00;2.15;;;;;;;;;;5014047;28;20037;-44
2022/02/02 20:30:21;;;;;;;7.28;2.05;;;;;;;;;;5013967;28;20100;-44
2022/02/02 20:32:48;;;;;;;10.35;2.22;;;;;;;;;;5013917;28;20050;-44
2022/02/02 20:35:15;;;;;;;10.32;2.55;;;;;;;;;;5014146;28;20040;-44
2022/02/02 20:37:42;;;;;;;8.30;2.40;;;;;;;;;;5013895;28;20714;-45
2022/02/02 20:40:09;;;;;;;11.63;2.35;;;;;;;;;;5013918;28;20029;-44
2022/02/02 20:42:45;;;;;;;14.65;2.20;;;;;;;;;;5014239;28;20022;-44
2022/02/02 20:45:31;;;;;;;8.85;2.47;;;;;;;;;;5013375;28;20227;-45
2022/02/02 21:07:37;;;;;;;9.27;2.63;;;;;;;;;;5013728;28;20041;-43
2022/02/02 21:10:13;;;;;;;9.23;2.28;;;;;;;;;;5013025;28;20050;-45
2022/02/02 21:15:28;;;;;;;9.52;2.55;;;;;;;;;;5013769;28;20048;-45
2022/02/02 21:17:59;;;;;;;8.20;2.28;;;;;;;;;;5012615;28;20125;-45
2022/02/02 21:23:05;;;;;;;7.88;2.38;;;;;;;;;;5027763;28;20033;-44
2022/02/02 21:28:01;;;;;;;11.82;3.00;;;;;;;;;;5013026;28;20046;-44
2022/02/02 21:30:30;;;;;;;14.68;2.67;;;;;;;;;;5012329;28;20399;-43
2022/02/02 21:32:57;;;;;;;13.07;2.50;;;;;;;;;;5012813;28;20445;-45
2022/02/02 21:35:24;;;;;;;12.70;3.08;;;;;;;;;;5012224;28;20448;-43
2022/02/02 21:38:00;;;;;;;12.13;2.92;;;;;;;;;;5021187;28;20132;-45
2022/02/02 21:40:28;;;;;;;14.55;2.50;;;;;;;;;;5032244;28;20112;-43
2022/02/02 21:42:56;;;;;;;13.02;3.00;;;;;;;;;;5032072;28;20072;-45
2022/02/02 21:45:25;;;;;;;13.23;2.83;;;;;;;;;;5031538;28;20021;-44
2022/02/02 21:47:53;;;;;;;16.30;3.05;;;;;;;;;;5032298;28;20029;-43
2022/02/02 21:50:20;;;;;;;11.15;2.72;;;;;;;;;;5031938;28;20021;-45
2022/02/02 21:52:48;;;;;;;14.43;3.10;;;;;;;;;;5031824;28;20034;-44
2022/02/02 21:55:15;;;;;;;12.00;2.47;;;;;;;;;;5032516;28;20037;-44
2022/02/02 21:57:44;;;;;;;8.85;2.20;;;;;;;;;;5031262;28;20033;-44
2022/02/02 22:00:12;;;;;;;12.57;2.83;;;;;;;;;;5032075;28;20042;-44
2022/02/02 22:02:40;;;;;;;12.45;3.00;;;;;;;;;;5031924;28;20673;-43
2022/02/02 22:05:08;;;;;;;17.23;2.95;;;;;;;;;;5031791;28;20037;-43
2022/02/02 22:07:35;;;;;;;10.38;2.45;;;;;;;;;;5032106;28;20036;-45
2022/02/02 22:10:05;;;;;;;11.30;2.53;;;;;;;;;;5031566;28;20041;-44
2022/02/02 22:12:36;;;;;;;13.30;2.50;;;;;;;;;;5031601;28;20416;-45
2022/02/02 22:15:06;;;;;;;10.38;2.30;;;;;;;;;;5021253;28;20033;-44
2022/02/02 22:17:33;;;;;;;15.85;2.67;;;;;;;;;;5021767;28;20033;-44
2022/02/02 22:20:05;;;;;;;11.00;2.85;;;;;;;;;;5020607;28;20113;-44
2022/02/02 22:22:33;;;;;;;10.20;2.50;;;;;;;;;;5019882;28;20483;-45
2022/02/02 22:25:00;;;;;;;13.93;2.42;;;;;;;;;;5020735;28;20026;-45
2022/02/02 22:27:27;;;;;;;7.95;2.20;;;;;;;;;;5002845;28;20490;-44
2022/02/02 22:29:55;;;;;;;13.70;3.05;;;;;;;;;;5022558;28;20071;-42
2022/02/02 22:32:22;;;;;;;13.93;2.60;;;;;;;;;;5022389;28;20504;-44
2022/02/02 22:34:49;;;;;;;12.15;2.67;;;;;;;;;;5022341;28;20056;-44
2022/02/02 22:37:16;;;;;;;11.32;2.67;;;;;;;;;;5016397;28;20025;-46
2022/02/02 22:39:43;;;;;;;7.55;2.33;;;;;;;;;;5029093;28;20388;-45
2022/02/02 22:42:13;;;;;;;13.43;2.65;;;;;;;;;;5030654;28;20034;-44
2022/02/02 22:44:40;;;;;;;11.45;2.47;;;;;;;;;;5031188;28;20043;-43
2022/02/02 22:47:10;;;;;;;11.80;3.05;;;;;;;;;;5031657;28;20519;-46
2022/02/02 22:49:42;;;;;;;11.75;2.63;;;;;;;;;;5031485;28;20503;-44
2022/02/02 22:52:10;;;;;;;12.60;2.80;;;;;;;;;;5015572;28;20038;-43
2022/02/02 22:54:41;;;;;;;12.40;2.97;;;;;;;;;;5011796;28;20099;-44
2022/02/02 22:57:09;;;;;;;10.05;2.70;;;;;;;;;;5010306;28;20104;-45
2022/02/02 22:59:39;;;;;;;14.48;2.90;;;;;;;;;;5011352;28;20044;-44
2022/02/02 23:04:52;;;;;;;16.92;2.75;;;;;;;;;;5013136;28;20046;-44
2022/02/02 23:07:19;;;;;;;16.05;2.75;;;;;;;;;;5029779;28;20048;-43
2022/02/02 23:09:48;;;;;;;15.63;2.53;;;;;;;;;;5030105;28;20029;-44
2022/02/02 23:12:18;;;;;;;8.00;2.30;;;;;;;;;;5026755;28;20376;-45
2022/02/02 23:14:45;;;;;;;10.02;2.50;;;;;;;;;;5017192;28;20038;-44
2022/02/02 23:17:13;;;;;;;13.18;2.75;;;;;;;;;;5029881;28;20059;-44
2022/02/02 23:19:45;;;;;;;11.18;2.90;;;;;;;;;;5028746;28;20072;-43
2022/02/02 23:22:15;;;;;;;12.70;2.72;;;;;;;;;;5030384;28;20066;-43
2022/02/02 23:24:48;;;;;;;12.43;2.75;;;;;;;;;;5027682;28;20057;-44
2022/02/02 23:27:15;;;;;;;12.77;2.90;;;;;;;;;;5030048;28;20458;-44
2022/02/02 23:29:46;;;;;;;18.38;3.60;;;;;;;;;;5030596;28;20092;-44
2022/02/02 23:32:16;;;;;;;22.60;2.95;;;;;;;;;;5030001;28;20080;-43
2022/02/02 23:34:43;;;;;;;12.77;2.53;;;;;;;;;;5030371;28;20372;-43
2022/02/02 23:37:12;;;;;;;13.13;2.58;;;;;;;;;;5030600;28;20029;-44
2022/02/02 23:39:43;;;;;;;12.00;2.95;;;;;;;;;;5030382;28;20038;-44
2022/02/02 23:42:21;;;;;;;11.95;2.30;;;;;;;;;;5030735;28;20079;-43
2022/02/02 23:44:52;;;;;;;16.92;2.75;;;;;;;;;;5030777;28;20041;-44
2022/02/02 23:47:21;;;;;;;15.05;3.05;;;;;;;;;;5015423;28;20556;-43
2022/02/02 23:49:56;;;;;;;12.25;2.53;;;;;;;;;;5014775;28;20125;-43
2022/02/02 23:52:27;;;;;;;10.30;2.42;;;;;;;;;;5014322;28;20038;-43
2022/02/02 23:54:57;;;;;;;14.13;2.60;;;;;;;;;;5014423;28;20484;-45
2022/02/02 23:57:52;;;;;;;7.28;2.33;;;;;;;;;;5017036;28;20037;-44
